»·PEaware :: N805RJ KPSP-KCMA

N805RJ :: KPSP-KCMA

FLIGHT INFORMATION

Flight Status: Arrived
Operator: Privately registered:
United States
More flights under this callsign
Pilot: Rickie J. (22768)
Aircraft: CESSNA 172 SKYHAWK
(C172)
More flights by this aircraft type
Origin: KPSP Palm Springs Intl
United States
Destination: KCMA Camarillo
United States
More flights between these airports :: More routes between these airports
Route: DEWAY V388 PDZ T306 LAX V299 ACRAT
File this flight plan on PilotEdge
Remarks:
Altitude:
(Current/Filed)
10,500ft
Speed:
(Current/Filed)
120kts
Departed: 02-Jan-21 03:19 PM
Arrived: 02-Jan-21 04:32 PM
Distance/Time
Traveled:
131nm/1:13
Distance/Time
To Go:
Arrived

Flight Plot

Page will automatically refresh every two minutes.

Flight plan parsing failed; only flown route is shown


Map Options




Map Legend


Flown Route
Filed Route
Departure Airport
Arrival Airport
Navaid (VOR, NDB)
Fix

Horizontal Profiles

Position Reports

Time Latitude Longitude Heading Altitude Ground
Speed
02-Jan-21 14:25 33.826610 -116.509373 82 481ft 0kts
02-Jan-21 14:26 33.826610 -116.509373 82 481ft 0kts
02-Jan-21 14:27 33.826610 -116.509373 82 481ft 0kts
02-Jan-21 14:28 33.826610 -116.509373 82 481ft 0kts
02-Jan-21 14:29 33.826610 -116.509373 82 481ft 0kts
02-Jan-21 14:30 33.826610 -116.509373 82 481ft 0kts
02-Jan-21 14:31 33.826610 -116.509373 82 481ft 0kts
02-Jan-21 14:32 33.826610 -116.509373 82 481ft 0kts
02-Jan-21 14:33 33.826610 -116.509373 82 481ft 0kts
02-Jan-21 14:34 33.826610 -116.509373 82 481ft 0kts
02-Jan-21 14:35 33.826610 -116.509373 82 481ft 0kts
02-Jan-21 14:36 33.826610 -116.509373 82 481ft 0kts
02-Jan-21 14:37 33.826610 -116.509373 82 481ft 0kts
02-Jan-21 14:38 33.826610 -116.509373 82 481ft 0kts
02-Jan-21 14:39 33.826610 -116.509373 82 481ft 0kts
02-Jan-21 14:40 33.826610 -116.509373 82 481ft 0kts
02-Jan-21 14:41 33.826610 -116.509373 82 481ft 0kts
02-Jan-21 14:42 33.826610 -116.509373 82 481ft 0kts
02-Jan-21 14:43 33.826610 -116.509373 82 481ft 0kts
02-Jan-21 14:44 33.826610 -116.509373 82 481ft 0kts
02-Jan-21 14:45 33.826610 -116.509373 82 481ft 0kts
02-Jan-21 14:46 33.826610 -116.509373 82 481ft 0kts
02-Jan-21 14:47 33.826610 -116.509373 82 481ft 0kts
02-Jan-21 14:48 33.826610 -116.509373 82 481ft 0kts
02-Jan-21 14:49 33.826610 -116.509373 81 481ft 0kts
02-Jan-21 14:50 33.826610 -116.509373 82 481ft 0kts
02-Jan-21 14:51 33.826610 -116.509373 82 481ft 0kts
02-Jan-21 14:52 33.826610 -116.509373 82 481ft 0kts
02-Jan-21 14:53 33.826610 -116.509373 82 481ft 0kts
02-Jan-21 14:54 33.826610 -116.509373 82 481ft 0kts
02-Jan-21 14:55 33.826610 -116.509373 82 481ft 0kts
02-Jan-21 14:56 33.826610 -116.509373 82 481ft 0kts
02-Jan-21 14:57 33.826610 -116.509373 82 481ft 0kts
02-Jan-21 14:58 33.826610 -116.509373 82 481ft 0kts
02-Jan-21 14:59 33.826610 -116.509373 82 481ft 0kts
02-Jan-21 15:00 33.826610 -116.509373 82 481ft 0kts
02-Jan-21 15:01 33.826610 -116.509373 82 481ft 0kts
02-Jan-21 15:02 33.826610 -116.509373 82 481ft 0kts
02-Jan-21 15:03 33.826610 -116.509373 82 481ft 0kts
02-Jan-21 15:04 33.826610 -116.509373 82 481ft 0kts
02-Jan-21 15:05 33.826610 -116.509373 82 481ft 0kts
02-Jan-21 15:06 33.826610 -116.509373 82 481ft 0kts
02-Jan-21 15:07 33.826610 -116.509373 82 481ft 0kts
02-Jan-21 15:08 33.826610 -116.509373 82 481ft 0kts
02-Jan-21 15:09 33.826610 -116.509373 82 481ft 0kts
02-Jan-21 15:10 33.826610 -116.509373 82 481ft 0kts
02-Jan-21 15:11 33.826610 -116.509373 82 481ft 0kts
02-Jan-21 15:12 33.825937 -116.508791 159 481ft 7kts
02-Jan-21 15:13 33.825302 -116.505890 122 481ft 11kts
02-Jan-21 15:14 33.823213 -116.503525 85 481ft 7kts
02-Jan-21 15:15 33.823252 -116.503302 75 481ft 0kts
02-Jan-21 15:17 33.823252 -116.503302 75 481ft 0kts
02-Jan-21 15:18 33.823351 -116.502940 59 481ft 4kts
02-Jan-21 15:19 33.830308 -116.508196 323 481ft 94kts
02-Jan-21 15:20 33.852654 -116.528105 322 1259ft 97kts
02-Jan-21 15:21 33.875103 -116.548125 322 2075ft 101kts
02-Jan-21 15:22 33.893469 -116.572325 274 2890ft 100kts
02-Jan-21 15:23 33.894122 -116.605891 272 3703ft 96kts
02-Jan-21 15:24 33.898065 -116.636805 292 4513ft 88kts
02-Jan-21 15:25 33.910115 -116.664029 299 5195ft 92kts
02-Jan-21 15:26 33.924050 -116.691814 298 5821ft 96kts
02-Jan-21 15:27 33.938402 -116.720006 299 6446ft 95kts
02-Jan-21 15:28 33.947432 -116.748907 270 7049ft 90kts
02-Jan-21 15:29 33.947158 -116.780126 266 7562ft 92kts
02-Jan-21 15:29 33.946365 -116.806008 264 7982ft 91kts
02-Jan-21 15:31 33.945116 -116.842993 263 8506ft 97kts
02-Jan-21 15:32 33.943957 -116.876558 263 8921ft 101kts
02-Jan-21 15:32 33.942975 -116.905072 262 9262ft 102kts
02-Jan-21 15:33 33.941788 -116.939511 262 9683ft 102kts
02-Jan-21 15:35 33.940385 -116.979793 261 10130ft 102kts
02-Jan-21 15:36 33.939103 -117.014279 261 10506ft 105kts
02-Jan-21 15:36 33.937917 -117.047743 263 10369ft 126kts
02-Jan-21 15:37 33.936409 -117.090471 262 10356ft 123kts
02-Jan-21 15:38 33.934941 -117.130862 262 10463ft 120kts
02-Jan-21 15:39 33.933387 -117.170441 262 10564ft 119kts
02-Jan-21 15:40 33.931617 -117.211653 262 10527ft 124kts
02-Jan-21 15:41 33.929822 -117.253248 262 10505ft 125kts
02-Jan-21 15:42 33.927991 -117.295301 262 10503ft 125kts
02-Jan-21 15:43 33.926158 -117.337076 262 10503ft 125kts
02-Jan-21 15:44 33.924405 -117.378999 262 10506ft 125kts
02-Jan-21 15:45 33.922688 -117.421275 262 10478ft 127kts
02-Jan-21 15:46 33.920987 -117.462868 262 10475ft 125kts
02-Jan-21 15:47 33.919267 -117.504483 262 10476ft 124kts
02-Jan-21 15:48 33.918615 -117.545640 266 10504ft 124kts
02-Jan-21 15:49 33.919361 -117.587241 266 10502ft 125kts
02-Jan-21 15:50 33.920146 -117.628677 266 10502ft 125kts
02-Jan-21 15:51 33.920949 -117.670678 266 10504ft 126kts
02-Jan-21 15:52 33.921735 -117.712469 266 10506ft 126kts
02-Jan-21 15:53 33.922508 -117.754463 266 10502ft 126kts
02-Jan-21 15:54 33.923271 -117.796599 266 10501ft 126kts
02-Jan-21 15:55 33.924015 -117.838495 266 10503ft 126kts
02-Jan-21 15:56 33.924940 -117.879870 266 10505ft 126kts
02-Jan-21 15:57 33.925500 -117.921251 266 10504ft 126kts
02-Jan-21 15:58 33.926038 -117.962500 266 10505ft 127kts
02-Jan-21 15:59 33.926785 -118.003553 266 10504ft 126kts
02-Jan-21 16:00 33.927480 -118.045813 266 10504ft 126kts
02-Jan-21 16:01 33.928111 -118.085800 266 10504ft 126kts
02-Jan-21 16:02 33.928750 -118.127229 266 10506ft 126kts
02-Jan-21 16:03 33.929366 -118.168140 266 10505ft 126kts
02-Jan-21 16:04 33.929981 -118.209727 266 10519ft 125kts
02-Jan-21 16:05 33.930569 -118.251075 266 10506ft 127kts
02-Jan-21 16:06 33.931161 -118.292876 266 10504ft 126kts
02-Jan-21 16:07 33.931739 -118.334977 266 10507ft 126kts
02-Jan-21 16:08 33.932300 -118.376990 266 10506ft 127kts
02-Jan-21 16:09 33.932857 -118.419696 266 10503ft 127kts
02-Jan-21 16:10 33.942937 -118.462052 286 10502ft 130kts
02-Jan-21 16:11 33.955961 -118.503626 286 10502ft 131kts
02-Jan-21 16:12 33.969132 -118.545081 286 10506ft 131kts
02-Jan-21 16:13 33.982464 -118.586906 287 10507ft 131kts
02-Jan-21 16:14 33.995815 -118.628730 286 10508ft 131kts
02-Jan-21 16:15 34.010273 -118.669536 302 10508ft 133kts
02-Jan-21 16:16 34.033848 -118.704677 305 10507ft 126kts
02-Jan-21 16:17 34.055070 -118.736248 304 10507ft 115kts
02-Jan-21 16:18 34.077594 -118.769900 305 9933ft 136kts
02-Jan-21 16:19 34.101343 -118.805234 305 9126ft 130kts
02-Jan-21 16:20 34.120854 -118.834316 305 8358ft 101kts
02-Jan-21 16:21 34.138139 -118.860183 304 7538ft 95kts
02-Jan-21 16:22 34.154780 -118.885083 305 6726ft 93kts
02-Jan-21 16:23 34.170909 -118.909051 304 5908ft 86kts
02-Jan-21 16:24 34.185218 -118.930619 305 5099ft 80kts
02-Jan-21 16:25 34.199200 -118.951596 305 4309ft 76kts
02-Jan-21 16:26 34.205130 -118.974138 274 3627ft 68kts
02-Jan-21 16:27 34.208740 -118.996396 282 3012ft 65kts
02-Jan-21 16:28 34.213286 -119.019996 279 2207ft 72kts
02-Jan-21 16:29 34.214979 -119.044251 267 1393ft 69kts
02-Jan-21 16:30 34.213459 -119.067498 272 593ft 67kts
02-Jan-21 16:31 34.213668 -119.088368 268 81ft 36kts
02-Jan-21 16:32 34.212812 -119.090892 206 81ft 0kts
02-Jan-21 16:33 34.212495 -119.090971 165 81ft 5kts
02-Jan-21 16:34 34.210981 -119.090607 271 81ft 10kts
02-Jan-21 16:35 34.210764 -119.092225 313 81ft 0kts
02-Jan-21 16:36 34.210764 -119.092225 313 81ft 0kts
02-Jan-21 16:37 34.210764 -119.092225 313 81ft 0kts
02-Jan-21 16:38 34.210764 -119.092225 313 81ft 0kts
02-Jan-21 16:39 34.210764 -119.092225 313 81ft 0kts
02-Jan-21 16:40 34.210764 -119.092225 313 81ft 0kts
02-Jan-21 16:41 34.210764 -119.092225 313 81ft 0kts
02-Jan-21 16:42 34.210764 -119.092225 313 81ft 0kts
02-Jan-21 16:43 34.210764 -119.092225 313 81ft 0kts
02-Jan-21 16:44 34.210764 -119.092225 313 81ft 0kts
02-Jan-21 16:45 34.210764 -119.092225 313 81ft 0kts

Navigation Log

Ident Type
Flight plan parsing failed, navigation log unavailable